Time;durP1;ratioP1;P1;durP2;ratioP2;P2;SDS_P1;SDS_P2;PMS_P1;PMS_P2;Temp;Humidity;BMP_temperature;BMP_pressure;BME280_temperature;BME280_humidity;BME280_pressure;Samples;Min_cycle;Max_cycle;Signal;HPM_P1;HPM_P2
2021/01/18 00:02:15;;;;;;;;;;;;;;;19.66;31.19;101106.19;5039083;28;793;-45
2021/01/18 00:04:40;;;;;;;;;;;;;;;19.71;31.34;101105.31;5056408;28;1980;-54
2021/01/18 00:07:06;;;;;;;;;;;;;;;20.60;29.96;101096.81;5054343;28;1141;-46
2021/01/18 00:09:31;;;;;;;;;;;;;;;20.55;29.80;101098.81;5038723;28;815;-49
2021/01/18 00:11:57;;;;;;;;;;;;;;;20.15;30.50;101091.47;5038680;28;748;-53
2021/01/18 00:14:22;;;;;;;;;;;;;;;19.86;30.97;101096.16;5038462;28;760;-48
2021/01/18 00:16:47;;;;;;;;;;;;;;;19.33;32.03;101103.06;5038847;28;836;-56
2021/01/18 00:19:13;;;;;;;;;;;;;;;20.22;30.52;101093.88;5058187;28;1251;-46
2021/01/18 00:21:45;;;;;;;;;;;;;;;20.80;29.26;101089.44;5058706;28;803;-55
2021/01/18 00:24:11;;;;;;;;;;;;;;;20.12;30.35;101100.34;5038261;28;1914;-46
2021/01/18 00:26:36;;;;;;;;;;;;;;;20.02;30.69;101108.72;5038450;28;855;-47
2021/01/18 00:29:01;;;;;;;;;;;;;;;19.40;31.49;101109.09;5038305;28;752;-46
2021/01/18 00:31:27;;;;;;;;;;;;;;;20.28;30.37;101102.94;5037790;28;803;-47
2021/01/18 00:33:52;;;;;;;;;;;;;;;20.85;29.12;101109.53;5038306;28;827;-47
2021/01/18 00:36:18;;;;;;;;;;;;;;;20.31;29.87;101108.72;5038356;28;705;-46
2021/01/18 00:38:43;;;;;;;;;;;;;;;20.15;30.27;101112.75;5037957;28;955;-50
2021/01/18 00:41:08;;;;;;;;;;;;;;;19.58;31.24;101115.06;5037913;28;748;-46
2021/01/18 00:43:34;;;;;;;;;;;;;;;19.75;31.11;101121.00;5037984;28;1910;-53
2021/01/18 00:45:59;;;;;;;;;;;;;;;20.55;29.64;101118.97;5037994;28;787;-47
2021/01/18 00:48:25;;;;;;;;;;;;;;;20.76;29.37;101116.84;5020512;28;1139;-45
2021/01/18 00:50:50;;;;;;;;;;;;;;;20.21;30.04;101113.50;5037606;28;740;-47
2021/01/18 00:53:16;;;;;;;;;;;;;;;20.01;30.43;101118.09;5019820;28;1279;-46
2021/01/18 00:55:44;;;;;;;;;;;;;;;19.54;31.54;101125.03;5020468;28;1328;-46
2021/01/18 00:58:27;;;;;;;;;;;;;;;20.47;29.94;101122.38;5037834;28;803;-57
2021/01/18 01:01:13;;;;;;;;;;;;;;;20.98;29.03;101118.25;5037325;28;1264;-48
2021/01/18 01:03:39;;;;;;;;;;;;;;;21.14;28.51;101122.47;5019830;28;1910;-48
2021/01/18 01:06:05;;;;;;;;;;;;;;;20.37;30.06;101120.53;5037098;28;757;-48
2021/01/18 01:08:30;;;;;;;;;;;;;;;20.02;30.42;101118.91;5037171;28;1090;-51
2021/01/18 01:10:55;;;;;;;;;;;;;;;19.61;31.33;101131.03;5037266;28;875;-51
2021/01/18 01:13:21;;;;;;;;;;;;;;;19.56;31.56;101122.78;5037509;28;814;-51
2021/01/18 01:15:46;;;;;;;;;;;;;;;20.50;29.75;101125.38;5037172;28;816;-50
2021/01/18 01:18:12;;;;;;;;;;;;;;;20.50;29.70;101119.84;5048625;28;1210;-50
2021/01/18 01:20:37;;;;;;;;;;;;;;;19.95;30.51;101125.59;5057156;28;764;-49
2021/01/18 01:23:03;;;;;;;;;;;;;;;19.51;31.14;101120.09;5044892;28;1914;-49
2021/01/18 01:25:28;;;;;;;;;;;;;;;19.93;30.50;101124.22;5037112;28;824;-58
2021/01/18 01:27:54;;;;;;;;;;;;;;;20.63;29.32;101123.84;5037196;28;860;-58
2021/01/18 01:30:23;;;;;;;;;;;;;;;20.64;29.35;101119.16;5037269;28;760;-49
2021/01/18 01:32:49;;;;;;;;;;;;;;;20.08;30.23;101126.88;5037209;28;740;-58
2021/01/18 01:35:15;;;;;;;;;;;;;;;19.65;30.98;101130.16;5037158;28;768;-58
2021/01/18 01:37:41;;;;;;;;;;;;;;;19.86;30.74;101127.31;5036645;28;1018;-53
2021/01/18 01:40:07;;;;;;;;;;;;;;;20.60;29.53;101134.69;5037044;28;744;-58
2021/01/18 01:42:32;;;;;;;;;;;;;;;20.35;29.65;101140.16;5037106;28;745;-57
2021/01/18 01:44:58;;;;;;;;;;;;;;;19.92;30.43;101139.13;5036989;28;1910;-51
2021/01/18 01:47:25;;;;;;;;;;;;;;;19.59;30.99;101136.03;5036827;28;752;-55
2021/01/18 01:49:51;;;;;;;;;;;;;;;20.06;30.16;101142.88;5019527;28;779;-49
2021/01/18 01:52:16;;;;;;;;;;;;;;;20.70;29.08;101142.88;5036249;28;970;-50
2021/01/18 01:54:42;;;;;;;;;;;;;;;20.40;29.53;101133.78;5019055;28;844;-58
2021/01/18 01:57:07;;;;;;;;;;;;;;;19.90;30.53;101142.19;5019227;28;1186;-57
2021/01/18 01:59:32;;;;;;;;;;;;;;;19.42;31.26;101145.50;5036231;28;807;-50
2021/01/18 02:01:58;;;;;;;;;;;;;;;19.99;30.26;101142.38;5018946;28;958;-58
2021/01/18 02:04:23;;;;;;;;;;;;;;;20.62;29.26;101143.50;5019246;28;1977;-50
2021/01/18 02:06:49;;;;;;;;;;;;;;;20.46;29.57;101143.63;5018517;28;1026;-54
2021/01/18 02:09:14;;;;;;;;;;;;;;;20.11;29.96;101153.91;5036386;28;784;-49
2021/01/18 02:11:40;;;;;;;;;;;;;;;19.83;30.60;101141.69;5036590;28;772;-55
2021/01/18 02:14:08;;;;;;;;;;;;;;;20.11;29.90;101144.78;5036224;28;858;-49
2021/01/18 02:16:37;;;;;;;;;;;;;;;20.76;28.89;101146.41;5036516;28;833;-55
2021/01/18 02:19:21;;;;;;;;;;;;;;;20.34;29.73;101151.50;5053889;28;1108;-47
2021/01/18 02:21:52;;;;;;;;;;;;;;;19.94;30.33;101154.31;5054655;28;1002;-47
2021/01/18 02:24:21;;;;;;;;;;;;;;;19.57;31.07;101152.03;5036215;28;1905;-47
2021/01/18 02:26:59;;;;;;;;;;;;;;;20.14;30.02;101146.97;5036508;28;795;-46
2021/01/18 02:29:24;;;;;;;;;;;;;;;20.63;29.13;101156.19;5035887;28;850;-49
2021/01/18 02:32:08;;;;;;;;;;;;;;;20.04;30.23;101155.34;5036644;28;753;-46
2021/01/18 02:34:46;;;;;;;;;;;;;;;19.53;30.95;101157.31;5036252;28;1072;-46
2021/01/18 02:37:13;;;;;;;;;;;;;;;20.00;30.31;101157.84;5018286;28;960;-48
2021/01/18 02:40:00;;;;;;;;;;;;;;;20.68;29.25;101158.94;5018705;28;796;-47
2021/01/18 02:42:27;;;;;;;;;;;;;;;20.21;29.70;101155.75;5018187;28;760;-47
2021/01/18 02:44:55;;;;;;;;;;;;;;;20.12;29.84;101150.03;5018601;28;1909;-46
2021/01/18 02:47:21;;;;;;;;;;;;;;;19.46;31.00;101152.09;5018667;28;768;-47
2021/01/18 02:49:52;;;;;;;;;;;;;;;20.05;29.96;101157.81;5018014;28;796;-47
2021/01/18 02:52:18;;;;;;;;;;;;;;;20.68;28.95;101162.53;5018217;28;1151;-54
2021/01/18 02:54:43;;;;;;;;;;;;;;;20.32;29.54;101162.81;5036414;28;744;-54
2021/01/18 02:57:11;;;;;;;;;;;;;;;20.02;29.94;101157.56;5035706;28;748;-51
2021/01/18 02:59:36;;;;;;;;;;;;;;;19.46;31.03;101163.13;5018443;28;887;-46
2021/01/18 03:02:15;;;;;;;;;;;;;;;20.13;29.88;101159.97;5018783;28;760;-46
2021/01/18 03:04:51;;;;;;;;;;;;;;;20.79;28.75;101166.00;5035757;28;1910;-46
2021/01/18 03:07:22;;;;;;;;;;;;;;;20.26;29.72;101157.63;5018229;28;1006;-47
2021/01/18 03:09:53;;;;;;;;;;;;;;;20.08;29.82;101156.41;5035829;28;772;-46
2021/01/18 03:12:19;;;;;;;;;;;;;;;19.47;31.10;101162.03;5035636;28;807;-46
2021/01/18 03:14:45;;;;;;;;;;;;;;;20.34;29.68;101163.38;5036012;28;819;-55
2021/01/18 03:17:13;;;;;;;;;;;;;;;20.81;29.00;101161.00;5021391;28;1245;-56
2021/01/18 03:19:42;;;;;;;;;;;;;;;20.43;29.29;101157.22;5055654;28;788;-48
2021/01/18 03:22:20;;;;;;;;;;;;;;;19.88;30.25;101160.13;5051841;28;1030;-46
2021/01/18 03:24:45;;;;;;;;;;;;;;;19.52;30.84;101165.84;5035480;28;1991;-52
2021/01/18 03:27:11;;;;;;;;;;;;;;;19.82;30.58;101168.47;5035542;28;840;-55
2021/01/18 03:29:36;;;;;;;;;;;;;;;20.51;29.11;101160.19;5020143;28;1307;-48
2021/01/18 03:32:02;;;;;;;;;;;;;;;20.70;28.97;101165.00;5039272;28;768;-47
2021/01/18 03:34:27;;;;;;;;;;;;;;;20.03;30.14;101165.53;5039096;28;787;-46
2021/01/18 03:36:52;;;;;;;;;;;;;;;19.85;30.21;101171.75;5039060;28;971;-47
2021/01/18 03:39:18;;;;;;;;;;;;;;;19.30;31.32;101169.81;5038908;28;768;-47
2021/01/18 03:41:44;;;;;;;;;;;;;;;20.11;29.78;101162.19;5038985;28;852;-47
2021/01/18 03:44:09;;;;;;;;;;;;;;;20.77;28.82;101168.22;5050933;28;1977;-47
2021/01/18 03:46:35;;;;;;;;;;;;;;;20.22;29.50;101173.97;5059034;28;778;-49
2021/01/18 03:49:00;;;;;;;;;;;;;;;20.02;29.91;101168.59;5058557;28;807;-47
2021/01/18 03:51:29;;;;;;;;;;;;;;;19.58;30.62;101178.50;5059034;28;796;-49
2021/01/18 03:53:55;;;;;;;;;;;;;;;19.87;30.31;101183.34;5039839;28;982;-47
2021/01/18 03:56:20;;;;;;;;;;;;;;;20.57;29.13;101183.06;5039140;28;736;-46
2021/01/18 03:58:46;;;;;;;;;;;;;;;20.94;28.55;101192.63;5055643;28;829;-48
2021/01/18 04:01:11;;;;;;;;;;;;;;;20.20;29.53;101189.97;5058677;28;484;-46
2021/01/18 04:03:37;;;;;;;;;;;;;;;19.78;30.50;101192.19;5058747;28;1917;-47
2021/01/18 04:06:02;;;;;;;;;;;;;;;19.55;30.70;101192.88;5058769;28;794;-48
2021/01/18 04:08:28;;;;;;;;;;;;;;;20.35;29.45;101192.63;5043264;28;1013;-48
2021/01/18 04:10:53;;;;;;;;;;;;;;;20.89;28.76;101200.16;5038577;28;792;-50
2021/01/18 04:13:19;;;;;;;;;;;;;;;20.23;29.51;101202.41;5038431;28;759;-47
2021/01/18 04:15:44;;;;;;;;;;;;;;;20.03;29.80;101204.19;5043465;28;880;-55
2021/01/18 04:18:09;;;;;;;;;;;;;;;19.73;30.46;101207.97;5058445;28;1123;-56
2021/01/18 04:20:35;;;;;;;;;;;;;;;20.50;29.24;101210.19;5058217;28;819;-48
2021/01/18 04:23:04;;;;;;;;;;;;;;;20.92;28.47;101207.91;5046589;28;1138;-54
2021/01/18 04:25:29;;;;;;;;;;;;;;;20.19;29.60;101215.97;5038535;28;851;-55
2021/01/18 04:27:55;;;;;;;;;;;;;;;20.06;29.80;101214.66;5038394;28;740;-54
2021/01/18 04:30:22;;;;;;;;;;;;;;;19.37;31.06;101236.50;5038073;28;855;-54
2021/01/18 04:32:50;;;;;;;;;;;;;;;20.05;29.89;101220.47;5038351;28;740;-55
2021/01/18 04:35:16;;;;;;;;;;;;;;;20.68;28.97;101225.25;5037908;28;772;-51
2021/01/18 04:37:41;;;;;;;;;;;;;;;20.40;29.28;101227.69;5037912;28;975;-48
2021/01/18 04:40:07;;;;;;;;;;;;;;;20.02;30.12;101221.88;5037400;28;795;-47
2021/01/18 04:42:32;;;;;;;;;;;;;;;19.66;30.75;101235.84;5037738;28;760;-47
2021/01/18 04:44:58;;;;;;;;;;;;;;;19.90;30.42;101233.25;5037910;28;1909;-47
2021/01/18 04:47:24;;;;;;;;;;;;;;;20.66;28.89;101239.34;5038017;28;764;-51
2021/01/18 04:49:52;;;;;;;;;;;;;;;20.52;28.88;101238.34;5037564;28;832;-55
2021/01/18 04:52:18;;;;;;;;;;;;;;;20.11;29.90;101247.75;5019976;28;924;-51
2021/01/18 04:54:44;;;;;;;;;;;;;;;19.74;30.49;101243.53;5020184;28;756;-57
2021/01/18 04:57:11;;;;;;;;;;;;;;;19.79;30.27;101254.56;5032098;28;932;-48
2021/01/18 04:59:40;;;;;;;;;;;;;;;20.59;29.11;101246.31;5057990;28;783;-50
2021/01/18 05:02:07;;;;;;;;;;;;;;;20.47;28.99;101244.75;5058046;28;940;-54
2021/01/18 05:04:35;;;;;;;;;;;;;;;20.07;29.85;101252.19;5057417;28;1968;-53
2021/01/18 05:07:01;;;;;;;;;;;;;;;19.81;30.21;101246.84;5053489;28;1025;-50
2021/01/18 05:09:27;;;;;;;;;;;;;;;19.83;30.17;101252.88;5019982;28;768;-56
2021/01/18 05:11:53;;;;;;;;;;;;;;;20.54;29.02;101249.94;5037061;28;759;-57
2021/01/18 05:14:19;;;;;;;;;;;;;;;20.44;29.31;101248.09;5037630;28;736;-48
2021/01/18 05:16:50;;;;;;;;;;;;;;;20.10;29.70;101254.38;5037461;28;1006;-49
2021/01/18 05:19:15;;;;;;;;;;;;;;;19.83;30.45;101255.66;5036554;28;831;-52
2021/01/18 05:21:42;;;;;;;;;;;;;;;19.70;30.62;101253.50;5019340;28;1019;-56
2021/01/18 05:24:07;;;;;;;;;;;;;;;20.45;29.25;101252.47;5036785;28;1994;-52
2021/01/18 05:26:33;;;;;;;;;;;;;;;20.77;28.67;101253.09;5036514;28;875;-55
2021/01/18 05:28:58;;;;;;;;;;;;;;;20.06;30.09;101249.72;5036852;28;749;-56
2021/01/18 05:31:30;;;;;;;;;;;;;;;19.76;30.42;101252.34;5036807;28;811;-54
2021/01/18 05:33:55;;;;;;;;;;;;;;;20.07;29.85;101254.16;5036557;28;780;-55
2021/01/18 05:36:52;;;;;;;;;;;;;;;20.58;29.08;101259.31;5036842;28;764;-57
2021/01/18 05:39:18;;;;;;;;;;;;;;;20.66;28.76;101255.09;5024275;28;1257;-52
2021/01/18 05:41:44;;;;;;;;;;;;;;;20.21;29.52;101254.34;5036479;28;824;-57
2021/01/18 05:44:09;;;;;;;;;;;;;;;19.80;30.48;101250.69;5036962;28;1975;-58
2021/01/18 05:46:39;;;;;;;;;;;;;;;19.72;30.37;101255.97;5018993;28;804;-54
2021/01/18 05:49:10;;;;;;;;;;;;;;;20.42;29.43;101252.25;5036258;28;748;-51
2021/01/18 05:51:36;;;;;;;;;;;;;;;20.79;28.49;101264.66;5036775;28;808;-54
2021/01/18 05:54:02;;;;;;;;;;;;;;;20.21;29.84;101262.63;5036393;28;1007;-54
2021/01/18 05:56:36;;;;;;;;;;;;;;;19.94;29.95;101261.94;5036286;28;886;-54
2021/01/18 05:59:02;;;;;;;;;;;;;;;19.57;30.86;101265.97;5036634;28;791;-55
2021/01/18 06:01:34;;;;;;;;;;;;;;;20.36;29.54;101268.03;5018970;28;1710;-53
2021/01/18 06:04:06;;;;;;;;;;;;;;;20.74;28.75;101262.78;5036090;28;1910;-52
2021/01/18 06:06:32;;;;;;;;;;;;;;;20.08;29.68;101270.44;5036446;28;816;-51
2021/01/18 06:08:57;;;;;;;;;;;;;;;19.91;30.14;101261.69;5017998;28;976;-52
2021/01/18 06:11:26;;;;;;;;;;;;;;;19.73;30.40;101265.91;5035974;28;800;-59
2021/01/18 06:13:51;;;;;;;;;;;;;;;20.50;29.08;101277.31;5036293;28;859;-50
2021/01/18 06:16:17;;;;;;;;;;;;;;;20.84;28.45;101270.16;5018378;28;1319;-51
2021/01/18 06:18:42;;;;;;;;;;;;;;;20.05;29.73;101265.47;5051561;28;1112;-57
2021/01/18 06:21:08;;;;;;;;;;;;;;;19.81;30.40;101273.59;5056011;28;830;-55
2021/01/18 06:23:34;;;;;;;;;;;;;;;19.70;30.70;101281.09;5039859;28;1906;-53
2021/01/18 06:25:59;;;;;;;;;;;;;;;20.49;29.10;101283.13;5036216;28;795;-52
2021/01/18 06:28:25;;;;;;;;;;;;;;;20.98;28.33;101281.34;5035976;28;763;-53
2021/01/18 06:31:00;;;;;;;;;;;;;;;20.22;29.61;101281.66;5036606;28;791;-49
2021/01/18 06:33:36;;;;;;;;;;;;;;;20.08;29.77;101278.69;5035820;28;537;-54
2021/01/18 06:36:05;;;;;;;;;;;;;;;19.49;30.88;101294.13;5035945;28;816;-57
2021/01/18 06:38:30;;;;;;;;;;;;;;;20.32;29.57;101291.81;5038462;28;1034;-49
2021/01/18 06:40:56;;;;;;;;;;;;;;;20.99;28.65;101283.81;5025983;28;1096;-51
2021/01/18 06:43:21;;;;;;;;;;;;;;;20.42;29.77;101294.50;5046210;28;1906;-54
2021/01/18 06:45:47;;;;;;;;;;;;;;;20.11;30.09;101293.88;5038540;28;1266;-54
2021/01/18 06:48:12;;;;;;;;;;;;;;;19.66;30.99;101299.31;5035735;28;741;-58
2021/01/18 06:50:38;;;;;;;;;;;;;;;19.94;30.29;101294.25;5035599;28;863;-50
2021/01/18 06:53:24;;;;;;;;;;;;;;;20.55;29.53;101304.06;5044095;28;1230;-58
2021/01/18 06:56:08;;;;;;;;;;;;;;;20.57;29.11;101306.56;5055111;28;1166;-58
2021/01/18 06:58:38;;;;;;;;;;;;;;;20.04;30.06;101310.75;5055599;28;816;-57
2021/01/18 07:01:03;;;;;;;;;;;;;;;19.43;31.13;101323.66;5038003;28;740;-57
2021/01/18 07:03:29;;;;;;;;;;;;;;;20.37;29.47;101322.16;5037888;28;1914;-57
2021/01/18 07:05:54;;;;;;;;;;;;;;;20.82;28.71;101324.91;5059558;28;827;-57
2021/01/18 07:08:21;;;;;;;;;;;;;;;21.31;27.91;101329.41;5041712;28;927;-58
2021/01/18 07:10:48;;;;;;;;;;;;;;;20.92;28.41;101321.25;5059050;28;752;-55
2021/01/18 07:13:14;;;;;;;;;;;;;;;20.21;29.80;101328.88;5059452;28;744;-52
2021/01/18 07:15:42;;;;;;;;;;;;;;;19.95;30.40;101334.53;5059510;28;732;-52
2021/01/18 07:18:11;;;;;;;;;;;;;;;19.41;31.11;101331.38;5058744;28;1154;-53
2021/01/18 07:20:43;;;;;;;;;;;;;;;20.11;30.00;101338.06;5059625;28;764;-53
2021/01/18 07:23:09;;;;;;;;;;;;;;;20.84;28.74;101334.53;5046494;28;1056;-48
2021/01/18 07:25:37;;;;;;;;;;;;;;;20.70;28.84;101344.63;5038810;28;1914;-50
2021/01/18 07:28:03;;;;;;;;;;;;;;;20.21;29.83;101338.00;5053802;28;862;-53
2021/01/18 07:30:35;;;;;;;;;;;;;;;19.87;30.23;101344.22;5058497;28;832;-54
2021/01/18 07:33:07;;;;;;;;;;;;;;;20.24;29.72;101336.59;5058748;28;804;-48
2021/01/18 07:35:33;;;;;;;;;;;;;;;20.79;28.60;101342.03;5059092;28;792;-52
2021/01/18 07:38:17;;;;;;;;;;;;;;;20.38;29.26;101337.59;5048125;28;998;-48
2021/01/18 07:41:01;;;;;;;;;;;;;;;19.98;29.73;101345.84;5038738;28;818;-49
2021/01/18 07:43:33;;;;;;;;;;;;;;;19.49;30.77;101338.25;5038927;28;1902;-55
2021/01/18 07:46:18;;;;;;;;;;;;;;;20.02;29.84;101345.25;5038465;28;740;-53
2021/01/18 07:48:43;;;;;;;;;;;;;;;20.71;28.62;101346.28;5038770;28;1808;-57
2021/01/18 07:51:09;;;;;;;;;;;;;;;20.43;28.99;101340.34;5039051;28;768;-53
2021/01/18 07:53:34;;;;;;;;;;;;;;;19.97;29.66;101346.13;5020562;28;960;-50
2021/01/18 07:56:01;;;;;;;;;;;;;;;19.49;30.49;101344.59;5038759;28;788;-49
2021/01/18 07:58:28;;;;;;;;;;;;;;;20.05;29.65;101344.69;5042274;28;840;-47
2021/01/18 08:00:56;;;;;;;;;;;;;;;20.74;28.74;101351.22;5058594;28;784;-46
2021/01/18 08:03:21;;;;;;;;;;;;;;;20.25;29.46;101352.06;5040711;28;1905;-57
2021/01/18 08:05:47;;;;;;;;;;;;;;;19.97;29.62;101352.47;5058237;28;801;-49
2021/01/18 08:08:13;;;;;;;;;;;;;;;19.58;30.54;101341.25;5045411;28;1021;-49
2021/01/18 08:11:17;;;;;;;;;;;;;;;19.67;30.23;101347.88;5038466;28;760;-48
2021/01/18 08:13:43;;;;;;;;;;;;;;;20.61;28.73;101351.84;4977394;28;1192;-48
2021/01/18 08:16:19;;;;;;;;;;;;;;;20.88;28.05;101350.56;4975900;28;741;-52
2021/01/18 08:18:51;;;;;;;;;;;;;;;20.17;29.28;101346.03;5020608;28;1248;-49
2021/01/18 08:21:34;;;;;;;;;;;;;;;19.92;29.71;101343.38;5058436;28;755;-49
2021/01/18 08:24:03;;;;;;;;;;;;;;;20.05;29.46;101345.53;5038122;28;1996;-50
2021/01/18 08:26:48;;;;;;;;;;;;;;;20.58;28.81;101339.44;5041848;28;829;-51
2021/01/18 08:29:32;;;;;;;;;;;;;;;20.61;28.76;101338.84;5057701;28;878;-53
2021/01/18 08:32:16;;;;;;;;;;;;;;;20.21;29.34;101337.19;5057823;28;824;-53
2021/01/18 08:34:42;;;;;;;;;;;;;;;19.49;30.40;101339.06;5057757;28;772;-47
2021/01/18 08:37:07;;;;;;;;;;;;;;;19.71;30.16;101335.13;5039599;28;971;-51
2021/01/18 08:39:32;;;;;;;;;;;;;;;20.50;28.83;101335.31;5039685;28;898;-48
2021/01/18 08:41:58;;;;;;;;;;;;;;;21.02;27.83;101340.50;5039989;28;808;-55
2021/01/18 08:44:29;;;;;;;;;;;;;;;20.41;28.74;101341.75;5039918;28;1894;-47
2021/01/18 08:46:55;;;;;;;;;;;;;;;20.13;29.09;101331.16;5057331;28;759;-47
2021/01/18 08:49:21;;;;;;;;;;;;;;;19.62;30.13;101339.59;5057597;28;784;-56
2021/01/18 08:51:47;;;;;;;;;;;;;;;20.14;29.30;101341.06;5056430;28;1006;-59
2021/01/18 08:54:26;;;;;;;;;;;;;;;20.72;28.36;101338.78;5037026;28;780;-52
2021/01/18 08:56:52;;;;;;;;;;;;;;;20.20;28.86;101347.38;5019897;28;920;-58
2021/01/18 08:59:17;;;;;;;;;;;;;;;20.08;29.32;101333.91;5019899;28;745;-53
2021/01/18 09:01:42;;;;;;;;;;;;;;;19.57;29.89;101337.69;5037373;28;776;-56
2021/01/18 09:04:08;;;;;;;;;;;;;;;20.00;29.54;101327.03;5028925;28;1969;-49
2021/01/18 09:06:42;;;;;;;;;;;;;;;20.73;28.06;101338.50;5057389;28;815;-54
2021/01/18 09:09:08;;;;;;;;;;;;;;;21.10;27.43;101331.56;5035500;28;1308;-55
2021/01/18 09:11:34;;;;;;;;;;;;;;;20.36;28.62;101331.56;5037334;28;820;-55
2021/01/18 09:13:59;;;;;;;;;;;;;;;20.28;28.72;101321.13;5037341;28;823;-52
2021/01/18 09:16:24;;;;;;;;;;;;;;;19.78;29.47;101332.09;5036646;28;795;-48
2021/01/18 09:18:50;;;;;;;;;;;;;;;20.10;29.24;101326.16;5053546;28;1135;-56
2021/01/18 09:21:16;;;;;;;;;;;;;;;20.78;28.20;101330.19;5057631;28;764;-56
2021/01/18 09:23:41;;;;;;;;;;;;;;;20.32;28.58;101333.25;5039430;28;1967;-55
2021/01/18 09:26:07;;;;;;;;;;;;;;;20.06;29.10;101319.56;5036763;28;871;-49
2021/01/18 09:28:33;;;;;;;;;;;;;;;19.49;29.86;101314.25;5036810;28;783;-52
2021/01/18 09:31:09;;;;;;;;;;;;;;;20.12;28.96;101315.69;5036769;28;833;-51
2021/01/18 09:33:34;;;;;;;;;;;;;;;20.83;27.76;101316.31;5036903;28;808;-53
2021/01/18 09:36:00;;;;;;;;;;;;;;;20.27;28.68;101314.78;5019149;28;840;-53
2021/01/18 09:38:25;;;;;;;;;;;;;;;20.20;28.92;101318.94;5036389;28;959;-51
2021/01/18 09:40:50;;;;;;;;;;;;;;;19.60;29.69;101317.81;5019782;28;743;-52
2021/01/18 09:43:18;;;;;;;;;;;;;;;20.40;28.38;101307.78;5036685;28;744;-52
2021/01/18 09:45:43;;;;;;;;;;;;;;;20.89;27.55;101300.53;5036701;28;875;-54
2021/01/18 09:48:09;;;;;;;;;;;;;;;20.34;28.53;101306.16;5036557;28;752;-57
2021/01/18 09:50:36;;;;;;;;;;;;;;;20.16;28.72;101293.81;5036471;28;795;-47
2021/01/18 09:53:08;;;;;;;;;;;;;;;19.68;29.63;101297.06;5036206;28;967;-54
2021/01/18 09:55:40;;;;;;;;;;;;;;;20.41;28.54;101298.38;5036609;28;860;-50
2021/01/18 09:58:07;;;;;;;;;;;;;;;20.98;27.43;101284.13;5036031;28;874;-51
2021/01/18 10:00:33;;;;;;;;;;;;;;;20.42;28.41;101296.44;5018777;28;768;-56
2021/01/18 10:02:59;;;;;;;;;;;;;;;20.26;28.55;101279.13;5018873;28;804;-55
2021/01/18 10:05:34;;;;;;;;;;;;;;;19.49;29.88;101286.66;5018570;28;1914;-56
2021/01/18 10:08:02;;;;;;;;;;;;;;;20.33;28.56;101271.38;5018392;28;964;-54
2021/01/18 10:10:28;;;;;;;;;;;;;;;20.92;27.47;101277.00;5018711;28;748;-55
2021/01/18 10:12:54;;;;;;;;;;;;;;;20.42;28.33;101271.59;5036148;28;840;-59
2021/01/18 10:15:26;;;;;;;;;;;;;;;20.10;28.92;101264.63;5036575;28;786;-51
2021/01/18 10:17:52;;;;;;;;;;;;;;;19.74;29.32;101264.78;5045009;28;1125;-52
2021/01/18 10:20:24;;;;;;;;;;;;;;;20.26;28.51;101268.09;5055807;28;871;-50
2021/01/18 10:22:50;;;;;;;;;;;;;;;20.83;27.75;101261.03;5045797;28;975;-55
2021/01/18 10:25:15;;;;;;;;;;;;;;;20.52;28.18;101261.28;5036026;28;1989;-49
2021/01/18 10:27:51;;;;;;;;;;;;;;;20.32;28.42;101261.44;5035905;28;855;-51
2021/01/18 10:30:19;;;;;;;;;;;;;;;19.66;29.59;101255.16;5035704;28;847;-48
2021/01/18 10:32:45;;;;;;;;;;;;;;;20.35;28.49;101252.56;5036047;28;772;-55
2021/01/18 10:35:17;;;;;;;;;;;;;;;20.79;27.91;101259.97;5044392;28;1242;-55
2021/01/18 10:37:42;;;;;;;;;;;;;;;20.50;28.37;101246.91;5046797;28;947;-53
2021/01/18 10:40:10;;;;;;;;;;;;;;;20.30;28.59;101252.59;5040282;28;1068;-58
2021/01/18 10:42:43;;;;;;;;;;;;;;;19.61;29.80;101236.69;5048485;28;1182;-54
2021/01/18 10:45:08;;;;;;;;;;;;;;;19.21;30.68;101255.06;5048218;28;1917;-61
2021/01/18 10:47:34;;;;;;;;;;;;;;;19.87;29.83;101244.88;5048534;28;1277;-59
2021/01/18 10:49:59;;;;;;;;;;;;;;;20.66;28.71;101225.53;5049535;28;1261;-56
2021/01/18 10:52:41;;;;;;;;;;;;;;;20.46;29.00;101234.78;5046834;28;1426;-57
2021/01/18 10:55:07;;;;;;;;;;;;;;;20.24;29.50;101217.84;5045895;28;1193;-57
2021/01/18 10:57:39;;;;;;;;;;;;;;;19.65;30.24;101214.88;5056778;28;1053;-57
2021/01/18 11:00:05;;;;;;;;;;;;;;;20.11;29.58;101222.91;5050555;28;1349;-55
2021/01/18 11:02:30;;;;;;;;;;;;;;;20.80;28.20;101217.41;5059904;28;822;-54
2021/01/18 11:04:56;;;;;;;;;;;;;;;20.37;29.01;101208.94;5059629;28;1905;-53
2021/01/18 11:07:21;;;;;;;;;;;;;;;20.11;29.12;101214.63;5053230;28;967;-58
2021/01/18 11:09:47;;;;;;;;;;;;;;;19.82;29.76;101209.03;5021930;28;851;-50
2021/01/18 11:12:13;;;;;;;;;;;;;;;19.85;29.73;101213.97;5021853;28;1449;-56
2021/01/18 11:14:38;;;;;;;;;;;;;;;20.59;28.24;101204.84;5021806;28;831;-58
2021/01/18 11:17:06;;;;;;;;;;;;;;;20.71;28.20;101202.56;5041095;28;1068;-52
2021/01/18 11:19:32;;;;;;;;;;;;;;;20.33;28.68;101202.34;5059370;28;776;-48
2021/01/18 11:21:57;;;;;;;;;;;;;;;20.05;29.21;101210.28;5054720;28;888;-51
2021/01/18 11:24:23;;;;;;;;;;;;;;;19.49;30.20;101201.16;5039025;28;1914;-45
2021/01/18 11:26:49;;;;;;;;;;;;;;;20.40;28.88;101190.94;5039304;28;780;-54
2021/01/18 11:29:14;;;;;;;;;;;;;;;20.98;27.60;101195.66;5039061;28;732;-54
2021/01/18 11:31:40;;;;;;;;;;;;;;;20.40;28.33;101185.41;5048964;28;896;-56
2021/01/18 11:34:05;;;;;;;;;;;;;;;20.09;28.92;101197.53;5059155;28;743;-55
2021/01/18 11:36:31;;;;;;;;;;;;;;;19.56;29.91;101194.50;5058717;28;795;-54
2021/01/18 11:38:56;;;;;;;;;;;;;;;20.08;29.12;101195.88;5040333;28;1021;-56
2021/01/18 11:41:22;;;;;;;;;;;;;;;20.75;28.03;101198.09;5039051;28;900;-51
2021/01/18 11:43:47;;;;;;;;;;;;;;;20.44;28.17;101198.38;5038545;28;1918;-49
2021/01/18 11:46:16;;;;;;;;;;;;;;;20.28;28.51;101194.06;5038874;28;822;-52
2021/01/18 11:48:42;;;;;;;;;;;;;;;19.60;29.63;101209.38;5038910;28;823;-59
2021/01/18 11:51:07;;;;;;;;;;;;;;;19.89;29.19;101205.94;5038709;28;784;-49
2021/01/18 11:53:33;;;;;;;;;;;;;;;20.66;27.81;101210.88;5039021;28;1026;-57
2021/01/18 11:55:58;;;;;;;;;;;;;;;20.56;28.02;101205.44;5039078;28;765;-52
2021/01/18 11:58:23;;;;;;;;;;;;;;;20.15;28.76;101207.41;5038173;28;835;-49
2021/01/18 12:00:49;;;;;;;;;;;;;;;19.76;29.47;101204.63;5038633;28;740;-51
2021/01/18 12:03:14;;;;;;;;;;;;;;;19.84;29.37;101201.31;5038742;28;756;-59
2021/01/18 12:05:40;;;;;;;;;;;;;;;20.61;27.85;101214.50;5020746;28;1973;-50
2021/01/18 12:08:06;;;;;;;;;;;;;;;21.03;27.08;101209.44;5038178;28;955;-55
2021/01/18 12:10:33;;;;;;;;;;;;;;;20.37;28.04;101211.69;5038830;28;795;-54
2021/01/18 12:12:59;;;;;;;;;;;;;;;19.94;28.84;101209.50;5038591;28;877;-55
2021/01/18 12:15:24;;;;;;;;;;;;;;;19.52;29.33;101207.22;5038454;28;774;-50
2021/01/18 12:17:50;;;;;;;;;;;;;;;20.00;28.82;101213.88;5046548;28;1140;-58
2021/01/18 12:20:16;;;;;;;;;;;;;;;20.74;27.52;101213.03;5058031;28;795;-53
2021/01/18 12:22:41;;;;;;;;;;;;;;;20.44;28.13;101208.56;5049639;28;963;-56
2021/01/18 12:25:07;;;;;;;;;;;;;;;20.25;28.13;101203.75;5038158;28;1926;-55
2021/01/18 12:27:33;;;;;;;;;;;;;;;19.80;28.88;101216.78;5050227;28;895;-50
2021/01/18 12:29:58;;;;;;;;;;;;;;;19.53;29.40;101219.91;5057837;28;876;-54
2021/01/18 12:32:24;;;;;;;;;;;;;;;20.31;28.12;101213.66;5057990;28;786;-55
2021/01/18 12:34:49;;;;;;;;;;;;;;;20.68;27.47;101208.69;5057616;28;788;-55
2021/01/18 12:37:14;;;;;;;;;;;;;;;20.20;28.24;101214.84;5053153;28;1002;-55
2021/01/18 12:39:40;;;;;;;;;;;;;;;19.95;28.50;101224.13;5037821;28;776;-54
2021/01/18 12:42:05;;;;;;;;;;;;;;;19.40;29.52;101218.59;5037516;28;499;-51
2021/01/18 12:44:31;;;;;;;;;;;;;;;20.27;28.16;101236.59;5037865;28;1981;-51
2021/01/18 12:47:00;;;;;;;;;;;;;;;20.83;27.18;101232.56;5037733;28;757;-50
2021/01/18 12:49:26;;;;;;;;;;;;;;;20.25;28.09;101241.59;5037686;28;768;-49
2021/01/18 12:51:51;;;;;;;;;;;;;;;20.06;28.56;101236.75;5037515;28;1080;-52
2021/01/18 12:54:17;;;;;;;;;;;;;;;19.42;29.49;101243.94;5037413;28;847;-52
2021/01/18 12:56:42;;;;;;;;;;;;;;;20.19;28.37;101246.34;5037410;28;783;-54